Time;durP1;ratioP1;P1;durP2;ratioP2;P2;SDS_P1;SDS_P2;PMS_P1;PMS_P2;Temp;Humidity;BMP_temperature;BMP_pressure;BME280_temperature;BME280_humidity;BME280_pressure;Samples;Min_cycle;Max_cycle;Signal;HPM_P1;HPM_P2
2023/03/15 00:00:12;;;;;;;7.22;1.45;;;4.00;99.90;;;;;;5005220;28;20185;-78
2023/03/15 00:02:38;;;;;;;4.35;0.90;;;3.90;99.90;;;;;;4992037;28;20469;-78
2023/03/15 00:05:04;;;;;;;8.85;1.30;;;3.90;99.90;;;;;;4998543;28;20037;-77
2023/03/15 00:07:30;;;;;;;5.95;1.25;;;3.80;99.90;;;;;;5001111;28;20048;-78
2023/03/15 00:09:56;;;;;;;3.20;0.80;;;3.80;99.90;;;;;;5000626;28;20025;-78
2023/03/15 00:12:22;;;;;;;4.07;1.65;;;3.70;99.90;;;;;;5000105;28;20065;-78
2023/03/15 00:14:49;;;;;;;4.03;1.13;;;3.70;99.90;;;;;;4983590;28;20026;-78
2023/03/15 00:17:14;;;;;;;3.67;0.90;;;3.70;99.90;;;;;;4999668;28;20054;-77
2023/03/15 00:19:40;;;;;;;4.60;0.80;;;3.70;99.90;;;;;;4999088;28;20049;-78
2023/03/15 00:22:06;;;;;;;1.67;0.60;;;3.60;99.90;;;;;;4999325;28;20096;-79
2023/03/15 00:24:31;;;;;;;5.85;1.20;;;3.60;99.90;;;;;;5001381;28;20540;-79
2023/03/15 00:26:57;;;;;;;6.85;1.00;;;3.50;99.90;;;;;;4999874;28;20041;-79
2023/03/15 00:29:23;;;;;;;5.80;0.88;;;3.50;99.90;;;;;;5000328;28;20080;-80
2023/03/15 00:31:50;;;;;;;4.45;1.10;;;3.50;99.90;;;;;;5000490;28;20467;-78
2023/03/15 00:34:17;;;;;;;6.05;1.33;;;3.40;99.90;;;;;;5000312;28;20037;-79
2023/03/15 00:36:43;;;;;;;4.57;1.13;;;3.40;99.90;;;;;;4998598;28;20441;-79
2023/03/15 00:39:09;;;;;;;5.47;1.15;;;3.40;99.90;;;;;;5000735;28;20036;-79
2023/03/15 00:41:35;;;;;;;4.38;0.90;;;3.40;99.90;;;;;;5003067;28;20129;-79
2023/03/15 00:44:00;;;;;;;2.22;0.80;;;3.40;99.90;;;;;;5001796;28;20120;-79
2023/03/15 00:46:26;;;;;;;2.42;1.10;;;3.30;99.90;;;;;;5002101;28;20045;-79
2023/03/15 00:48:52;;;;;;;7.20;1.05;;;3.30;99.90;;;;;;5000743;28;20022;-79
2023/03/15 00:51:20;;;;;;;5.13;1.38;;;3.30;99.90;;;;;;4984092;28;20038;-79
2023/03/15 00:53:46;;;;;;;6.20;1.67;;;3.30;99.90;;;;;;4999494;28;20054;-79
2023/03/15 00:56:26;;;;;;;2.65;0.70;;;3.20;99.90;;;;;;4993457;28;20132;-79
2023/03/15 00:58:51;;;;;;;3.28;0.88;;;3.20;99.90;;;;;;5001822;28;20037;-79
2023/03/15 01:01:26;;;;;;;4.32;0.90;;;3.10;99.90;;;;;;5000992;28;20030;-79
2023/03/15 01:03:52;;;;;;;3.83;0.88;;;3.10;99.90;;;;;;4995397;28;20025;-79
2023/03/15 01:06:20;;;;;;;4.32;1.00;;;3.10;99.90;;;;;;4999365;28;20497;-79
2023/03/15 01:08:46;;;;;;;2.72;0.70;;;3.00;99.90;;;;;;5003335;28;20022;-78
2023/03/15 01:11:15;;;;;;;2.97;1.10;;;3.00;99.90;;;;;;5005102;28;20895;-78
2023/03/15 01:13:40;;;;;;;1.90;0.80;;;3.00;99.90;;;;;;4999360;28;20034;-79
2023/03/15 01:16:07;;;;;;;2.22;0.88;;;2.90;99.90;;;;;;4999881;28;20041;-79
2023/03/15 01:18:33;;;;;;;2.13;0.82;;;2.90;99.90;;;;;;5006683;28;20579;-78
2023/03/15 01:20:59;;;;;;;2.03;0.80;;;2.90;99.90;;;;;;5006131;28;20030;-78
2023/03/15 01:23:25;;;;;;;5.75;0.82;;;3.00;99.90;;;;;;5002018;28;20089;-79
2023/03/15 01:25:51;;;;;;;9.02;1.13;;;2.90;99.90;;;;;;4998608;28;20334;-79
2023/03/15 01:28:16;;;;;;;5.35;1.02;;;2.90;99.90;;;;;;5005033;28;20033;-78
2023/03/15 01:30:49;;;;;;;2.85;0.95;;;2.90;99.90;;;;;;5006606;28;20049;-78
2023/03/15 01:33:15;;;;;;;1.98;0.73;;;2.90;99.90;;;;;;5002404;28;20044;-79
2023/03/15 01:35:41;;;;;;;3.47;0.80;;;2.90;99.90;;;;;;4988417;28;20041;-79
2023/03/15 01:38:06;;;;;;;4.15;1.02;;;2.90;99.90;;;;;;5005687;28;20041;-79
2023/03/15 01:40:32;;;;;;;5.32;0.85;;;2.80;99.90;;;;;;5005819;28;20069;-79
2023/03/15 01:43:04;;;;;;;2.92;0.80;;;2.80;99.90;;;;;;5005616;28;20177;-79
2023/03/15 01:46:00;;;;;;;6.47;0.98;;;2.80;99.90;;;;;;4986393;28;20053;-77
2023/03/15 01:48:38;;;;;;;4.03;0.98;;;2.70;99.90;;;;;;4991020;28;20481;-78
2023/03/15 01:51:12;;;;;;;3.40;0.63;;;2.70;99.90;;;;;;5002331;28;20041;-78
2023/03/15 01:53:46;;;;;;;1.58;0.73;;;2.70;99.90;;;;;;4979802;28;20033;-78
2023/03/15 01:56:12;;;;;;;4.72;1.10;;;2.70;99.90;;;;;;5004063;28;20101;-78
2023/03/15 01:58:40;;;;;;;2.78;0.70;;;2.60;99.90;;;;;;5005252;28;20033;-77
2023/03/15 02:01:08;;;;;;;3.45;1.02;;;2.70;99.90;;;;;;5002528;28;20107;-80
2023/03/15 02:03:38;;;;;;;3.28;0.95;;;2.70;99.90;;;;;;4978107;28;20034;-78
2023/03/15 02:06:07;;;;;;;2.25;0.75;;;2.60;99.90;;;;;;5001367;28;20149;-78
2023/03/15 02:08:38;;;;;;;2.50;0.82;;;2.60;99.90;;;;;;4976356;28;20133;-77
2023/03/15 02:11:04;;;;;;;1.95;0.80;;;2.60;99.90;;;;;;4988122;28;20026;-78
2023/03/15 02:13:32;;;;;;;2.13;0.93;;;2.70;99.90;;;;;;5002392;28;20058;-77
2023/03/15 02:15:58;;;;;;;2.33;1.00;;;2.60;99.90;;;;;;4983823;28;20046;-78
2023/03/15 02:18:24;;;;;;;1.38;0.70;;;2.50;99.90;;;;;;4992719;28;20076;-79
2023/03/15 02:21:08;;;;;;;3.28;1.00;;;2.50;99.90;;;;;;5001823;28;20048;-80
2023/03/15 02:23:34;;;;;;;5.00;1.10;;;2.50;99.90;;;;;;5001406;28;20080;-79
2023/03/15 02:26:02;;;;;;;3.63;0.95;;;2.50;99.90;;;;;;4993170;28;20094;-79
2023/03/15 02:28:28;;;;;;;3.83;1.20;;;2.50;99.90;;;;;;4998606;28;20034;-78
2023/03/15 02:30:54;;;;;;;4.95;1.00;;;2.40;99.90;;;;;;5004135;28;20062;-79
2023/03/15 02:33:27;;;;;;;1.92;0.85;;;2.30;99.90;;;;;;5002950;28;20050;-79
2023/03/15 02:35:54;;;;;;;2.90;0.85;;;2.30;99.90;;;;;;5001279;28;20103;-80
2023/03/15 02:38:21;;;;;;;2.28;0.90;;;2.30;99.90;;;;;;5002129;28;20410;-79
2023/03/15 02:40:47;;;;;;;3.35;0.90;;;2.20;99.90;;;;;;5003989;28;20469;-80
2023/03/15 02:43:21;;;;;;;7.75;1.35;;;2.20;99.90;;;;;;5004399;28;20118;-79
2023/03/15 02:45:47;;;;;;;5.63;0.93;;;2.20;99.90;;;;;;4984945;28;20026;-80
2023/03/15 02:48:12;;;;;;;2.92;0.80;;;2.20;99.90;;;;;;4987756;28;20033;-79
2023/03/15 02:50:38;;;;;;;5.88;0.80;;;2.20;99.90;;;;;;5000667;28;20408;-79
2023/03/15 02:53:04;;;;;;;3.38;1.02;;;2.20;99.90;;;;;;5004130;28;20026;-79
2023/03/15 02:55:33;;;;;;;2.35;0.95;;;2.10;99.90;;;;;;4997781;28;20041;-79
2023/03/15 02:58:00;;;;;;;3.63;1.17;;;2.20;99.90;;;;;;5001536;28;20030;-77
2023/03/15 03:00:26;;;;;;;3.38;0.98;;;2.20;99.90;;;;;;5004948;28;20227;-79
2023/03/15 03:02:51;;;;;;;5.85;1.33;;;2.20;99.90;;;;;;4998275;28;20034;-79
2023/03/15 03:05:17;;;;;;;2.50;0.75;;;2.10;99.90;;;;;;4981434;28;20048;-79
2023/03/15 03:07:43;;;;;;;3.60;1.35;;;2.10;99.90;;;;;;5002872;28;20121;-79
2023/03/15 03:10:14;;;;;;;2.55;0.80;;;2.00;99.90;;;;;;4989531;28;20038;-79
2023/03/15 03:12:40;;;;;;;1.95;0.90;;;2.00;99.90;;;;;;4991424;28;20037;-79
2023/03/15 03:15:06;;;;;;;2.63;0.95;;;2.00;99.90;;;;;;4983549;28;20402;-79
2023/03/15 03:17:36;;;;;;;1.85;0.93;;;2.00;99.90;;;;;;4990821;28;20029;-79
2023/03/15 03:20:09;;;;;;;3.72;1.50;;;2.00;99.90;;;;;;5000739;28;20061;-80
2023/03/15 03:22:36;;;;;;;2.35;1.10;;;1.90;99.90;;;;;;4994235;28;20049;-79
2023/03/15 03:25:02;;;;;;;3.08;1.02;;;1.90;99.90;;;;;;4981577;28;20058;-79
2023/03/15 03:27:29;;;;;;;4.13;1.00;;;1.90;99.90;;;;;;4994208;28;20405;-80
2023/03/15 03:29:54;;;;;;;5.25;1.33;;;1.90;99.90;;;;;;4990996;28;20037;-80
2023/03/15 03:32:20;;;;;;;4.38;1.08;;;1.80;99.90;;;;;;5002167;28;20076;-79
2023/03/15 03:34:47;;;;;;;2.40;1.10;;;1.80;99.90;;;;;;4984591;28;20029;-79
2023/03/15 03:37:17;;;;;;;3.40;1.40;;;1.80;99.90;;;;;;5003339;28;20120;-79
2023/03/15 03:39:43;;;;;;;3.20;1.20;;;1.80;99.90;;;;;;4986991;28;20121;-79
2023/03/15 03:42:09;;;;;;;2.88;1.08;;;1.70;99.90;;;;;;4996404;28;20122;-80
2023/03/15 03:44:34;;;;;;;2.63;0.95;;;1.70;99.90;;;;;;5002443;28;20076;-80
2023/03/15 03:47:00;;;;;;;2.75;1.02;;;1.60;99.90;;;;;;5003359;28;20104;-79
2023/03/15 03:49:25;;;;;;;5.13;1.13;;;1.60;99.90;;;;;;5000898;28;20104;-79
2023/03/15 03:51:51;;;;;;;2.75;1.13;;;1.60;99.90;;;;;;4987769;28;20102;-79
2023/03/15 03:54:20;;;;;;;2.35;1.20;;;1.50;99.90;;;;;;4981431;28;20466;-79
2023/03/15 03:56:46;;;;;;;3.17;1.00;;;1.50;99.90;;;;;;4990735;28;20085;-79
2023/03/15 03:59:11;;;;;;;3.13;1.25;;;1.50;99.90;;;;;;5002731;28;20355;-80
2023/03/15 04:01:37;;;;;;;5.55;1.42;;;1.50;99.90;;;;;;5002580;28;20037;-79
2023/03/15 04:04:03;;;;;;;6.22;1.20;;;1.40;99.90;;;;;;5000357;28;20104;-79
2023/03/15 04:06:28;;;;;;;4.32;1.38;;;1.40;99.90;;;;;;4996264;28;20034;-80
2023/03/15 04:08:54;;;;;;;4.10;1.00;;;1.40;99.90;;;;;;4990085;28;20026;-78
2023/03/15 04:11:19;;;;;;;1.85;1.10;;;1.40;99.90;;;;;;5002039;28;20049;-79
2023/03/15 04:13:45;;;;;;;1.80;0.70;;;1.40;99.90;;;;;;5003052;28;20108;-79
2023/03/15 04:16:11;;;;;;;4.72;1.05;;;1.40;99.90;;;;;;5002042;28;20449;-79
2023/03/15 04:18:39;;;;;;;3.40;0.95;;;1.30;99.90;;;;;;4998968;28;20760;-79
2023/03/15 04:21:09;;;;;;;2.33;1.10;;;1.30;99.90;;;;;;4997279;28;20791;-79
2023/03/15 04:23:35;;;;;;;4.63;0.98;;;1.30;99.90;;;;;;5001054;28;20092;-79
2023/03/15 04:26:02;;;;;;;2.70;1.52;;;1.30;99.90;;;;;;5001418;28;20036;-79
2023/03/15 04:28:29;;;;;;;1.00;0.82;;;1.20;99.90;;;;;;5002345;28;20775;-79
2023/03/15 04:30:57;;;;;;;5.32;1.20;;;1.20;99.90;;;;;;4995589;28;20623;-79
2023/03/15 04:33:23;;;;;;;3.97;1.35;;;1.10;99.90;;;;;;5001154;28;20589;-79
2023/03/15 04:35:51;;;;;;;2.70;1.60;;;1.10;99.90;;;;;;4998337;28;20061;-79
2023/03/15 04:38:17;;;;;;;5.35;1.48;;;1.10;99.90;;;;;;5000683;28;20056;-78
2023/03/15 04:40:42;;;;;;;6.80;1.20;;;1.00;99.90;;;;;;5002093;28;20810;-78
2023/03/15 04:43:08;;;;;;;5.82;1.52;;;1.00;99.90;;;;;;5000353;28;20043;-78
2023/03/15 04:45:34;;;;;;;5.20;1.38;;;0.90;99.90;;;;;;5001771;28;20030;-79
2023/03/15 04:48:01;;;;;;;2.33;1.08;;;1.00;99.90;;;;;;5000595;28;20045;-79
2023/03/15 04:50:28;;;;;;;3.08;1.20;;;0.90;99.90;;;;;;4995639;28;20034;-79
2023/03/15 04:52:53;;;;;;;5.40;1.10;;;0.90;99.90;;;;;;4993826;28;20026;-79
2023/03/15 04:55:19;;;;;;;3.28;1.13;;;0.90;99.90;;;;;;5001090;28;20033;-78
2023/03/15 04:57:44;;;;;;;2.08;1.05;;;0.80;99.90;;;;;;5001754;28;20147;-79
2023/03/15 05:00:11;;;;;;;3.92;1.40;;;0.80;99.90;;;;;;4985445;28;20026;-79
2023/03/15 05:02:40;;;;;;;3.70;1.35;;;0.70;99.90;;;;;;4985305;28;20026;-79
2023/03/15 05:05:07;;;;;;;7.75;1.20;;;0.70;99.90;;;;;;5000318;28;20030;-79
2023/03/15 05:07:34;;;;;;;3.20;1.17;;;0.70;99.90;;;;;;4990537;28;20041;-79
2023/03/15 05:10:00;;;;;;;3.22;1.33;;;0.70;99.90;;;;;;4995392;28;20057;-79
2023/03/15 05:12:27;;;;;;;7.05;1.63;;;0.60;99.90;;;;;;5000125;28;20048;-79
2023/03/15 05:14:52;;;;;;;7.47;1.13;;;0.50;99.90;;;;;;4983333;28;20030;-79
2023/03/15 05:17:18;;;;;;;2.53;1.08;;;0.50;99.90;;;;;;4987964;28;20471;-79
2023/03/15 05:19:44;;;;;;;3.65;1.10;;;0.60;99.90;;;;;;4993308;28;20040;-79
2023/03/15 05:22:10;;;;;;;1.40;0.95;;;0.60;99.90;;;;;;4977991;28;20583;-79
2023/03/15 05:24:36;;;;;;;3.40;1.50;;;0.60;99.90;;;;;;4984180;28;20026;-79
2023/03/15 05:27:03;;;;;;;2.45;1.27;;;0.60;99.90;;;;;;4992130;28;20070;-79
2023/03/15 05:29:29;;;;;;;7.30;1.20;;;0.60;99.90;;;;;;4990393;28;20030;-79
2023/03/15 05:31:55;;;;;;;5.18;1.40;;;0.60;99.90;;;;;;4999060;28;20614;-79
2023/03/15 05:34:23;;;;;;;4.70;1.60;;;0.60;99.90;;;;;;4993403;28;20018;-79
2023/03/15 05:36:50;;;;;;;3.47;1.10;;;0.60;99.90;;;;;;4996749;28;20393;-79
2023/03/15 05:39:16;;;;;;;6.97;1.45;;;0.60;99.90;;;;;;4984404;28;20026;-79
2023/03/15 05:41:42;;;;;;;3.60;1.50;;;0.60;99.90;;;;;;4993826;28;20037;-79
2023/03/15 05:44:07;;;;;;;4.18;1.50;;;0.60;99.90;;;;;;5000286;28;20029;-79
2023/03/15 05:46:33;;;;;;;4.72;1.40;;;0.60;99.90;;;;;;4998300;28;20438;-79
2023/03/15 05:48:59;;;;;;;5.50;1.65;;;0.60;99.90;;;;;;4999202;28;20034;-79
2023/03/15 05:51:24;;;;;;;3.05;1.40;;;0.60;99.90;;;;;;4996735;28;20034;-79
2023/03/15 05:53:50;;;;;;;3.33;1.40;;;0.60;99.90;;;;;;5000599;28;20030;-79
2023/03/15 05:56:15;;;;;;;5.32;1.25;;;0.50;99.90;;;;;;5000296;28;20120;-79
2023/03/15 05:58:41;;;;;;;5.07;1.40;;;0.50;99.90;;;;;;4985035;28;20117;-78
2023/03/15 06:01:06;;;;;;;5.93;1.33;;;0.50;99.90;;;;;;4990506;28;20049;-79
2023/03/15 06:03:32;;;;;;;6.25;1.55;;;0.40;99.90;;;;;;5002536;28;20646;-79
2023/03/15 06:05:58;;;;;;;3.47;1.80;;;0.40;99.90;;;;;;5002481;28;20129;-79
2023/03/15 06:08:24;;;;;;;3.25;1.88;;;0.40;99.90;;;;;;5000420;28;20033;-79
2023/03/15 06:10:50;;;;;;;3.25;1.58;;;0.40;99.90;;;;;;4991700;28;20053;-79
2023/03/15 06:13:15;;;;;;;5.70;2.10;;;0.40;99.90;;;;;;5000658;28;20037;-79
2023/03/15 06:15:41;;;;;;;6.30;1.90;;;0.40;99.90;;;;;;4983766;28;20029;-79
2023/03/15 06:18:07;;;;;;;5.65;2.13;;;0.40;99.90;;;;;;4990129;28;20034;-79
2023/03/15 06:20:33;;;;;;;7.38;1.88;;;0.50;99.90;;;;;;4993823;28;20045;-80
2023/03/15 06:22:58;;;;;;;3.30;1.77;;;0.50;99.90;;;;;;5003024;28;20088;-79
2023/03/15 06:25:24;;;;;;;6.47;1.92;;;0.60;99.90;;;;;;5002286;28;20057;-79
2023/03/15 06:27:50;;;;;;;5.93;2.17;;;0.70;99.90;;;;;;4984757;28;20029;-79
2023/03/15 06:30:15;;;;;;;4.68;2.20;;;0.90;99.90;;;;;;5002595;28;20030;-79
2023/03/15 06:32:41;;;;;;;6.40;2.10;;;1.10;99.90;;;;;;5003191;28;20030;-79
2023/03/15 06:35:07;;;;;;;3.92;2.10;;;1.20;99.90;;;;;;4994298;28;20473;-78
2023/03/15 06:37:35;;;;;;;9.32;2.00;;;1.40;99.90;;;;;;4986543;28;20026;-79
2023/03/15 06:40:04;;;;;;;5.38;2.10;;;1.50;99.90;;;;;;4996554;28;20117;-79
2023/03/15 06:42:30;;;;;;;8.18;2.78;;;1.80;99.90;;;;;;4968248;28;20037;-80
2023/03/15 06:44:55;;;;;;;9.88;2.78;;;2.30;99.90;;;;;;4999659;28;20038;-79
2023/03/15 06:47:21;;;;;;;7.22;2.50;;;2.90;99.90;;;;;;5000134;28;20034;-79
2023/03/15 06:49:49;;;;;;;8.50;2.30;;;3.80;99.90;;;;;;5002103;28;20026;-79
2023/03/15 06:52:15;;;;;;;4.93;2.70;;;3.80;99.90;;;;;;5001026;28;20461;-79
2023/03/15 06:54:41;;;;;;;6.70;2.60;;;3.80;99.90;;;;;;5003103;28;20071;-80
2023/03/15 06:57:07;;;;;;;7.93;2.63;;;3.80;99.90;;;;;;5002203;28;20073;-79
2023/03/15 06:59:32;;;;;;;4.47;2.47;;;4.40;99.90;;;;;;5001820;28;20044;-79
2023/03/15 07:01:58;;;;;;;4.28;2.10;;;5.10;99.90;;;;;;5001574;28;20104;-79
2023/03/15 07:04:23;;;;;;;2.58;2.00;;;5.60;99.90;;;;;;5002614;28;20029;-79
2023/03/15 07:06:49;;;;;;;82.22;38.97;;;6.30;98.30;;;;;;5002821;28;20033;-79
2023/03/15 07:09:15;;;;;;;62.47;26.60;;;7.20;92.70;;;;;;4984816;28;20084;-79
2023/03/15 07:11:40;;;;;;;13.80;6.28;;;7.70;85.10;;;;;;4998345;28;20034;-80
2023/03/15 07:14:06;;;;;;;99.15;40.47;;;7.50;85.00;;;;;;5003425;28;20042;-80
2023/03/15 07:16:32;;;;;;;13.15;5.00;;;7.10;90.00;;;;;;5003612;28;20124;-79
2023/03/15 07:18:58;;;;;;;5.35;2.38;;;6.90;90.70;;;;;;5003830;28;20357;-80
2023/03/15 07:21:25;;;;;;;3.88;2.35;;;6.70;91.50;;;;;;5003314;28;20489;-79
2023/03/15 07:23:50;;;;;;;3.97;2.10;;;6.60;92.80;;;;;;5005118;28;20773;-80
2023/03/15 07:26:16;;;;;;;3.38;1.73;;;6.70;92.90;;;;;;4986533;28;20100;-80
2023/03/15 07:28:43;;;;;;;3.47;1.80;;;6.80;91.50;;;;;;5003046;28;20381;-79
2023/03/15 07:31:10;;;;;;;3.90;1.55;;;7.10;89.60;;;;;;4979796;28;20030;-80
2023/03/15 07:33:36;;;;;;;5.03;1.77;;;7.50;89.10;;;;;;4990375;28;20034;-80
2023/03/15 07:36:04;;;;;;;7.63;1.70;;;7.70;81.70;;;;;;5000394;28;20044;-80
2023/03/15 07:38:30;;;;;;;4.03;1.77;;;7.70;79.70;;;;;;4997764;28;20033;-80
2023/03/15 07:40:56;;;;;;;2.97;1.42;;;7.60;78.20;;;;;;4982267;28;20049;-80
2023/03/15 07:43:22;;;;;;;3.83;1.70;;;7.50;79.60;;;;;;4981823;28;20375;-79
2023/03/15 07:45:49;;;;;;;1.85;1.23;;;7.60;82.50;;;;;;4996543;28;20026;-82
2023/03/15 07:48:15;;;;;;;6.28;1.70;;;7.80;80.30;;;;;;4998025;28;20117;-81
2023/03/15 07:50:40;;;;;;;5.22;1.65;;;8.00;79.90;;;;;;4979491;28;20176;-81
2023/03/15 07:53:06;;;;;;;2.33;1.25;;;8.20;78.10;;;;;;4993715;28;20038;-81
2023/03/15 07:55:33;;;;;;;4.03;1.50;;;8.30;77.10;;;;;;4995106;28;20033;-80
2023/03/15 07:57:59;;;;;;;2.45;1.48;;;8.40;73.00;;;;;;4985603;28;20056;-81
2023/03/15 08:00:25;;;;;;;5.68;1.83;;;8.60;75.20;;;;;;4985475;28;20552;-80
2023/03/15 08:02:51;;;;;;;4.00;1.63;;;8.60;74.20;;;;;;4984299;28;20025;-81
2023/03/15 08:05:18;;;;;;;4.40;1.75;;;8.70;77.10;;;;;;5001790;28;20385;-81
2023/03/15 08:07:47;;;;;;;6.05;2.00;;;8.90;73.60;;;;;;5002627;28;20022;-81
2023/03/15 08:10:14;;;;;;;5.80;2.10;;;9.30;70.30;;;;;;4983461;28;20393;-82
2023/03/15 08:12:41;;;;;;;5.45;2.20;;;9.60;68.90;;;;;;5001659;28;20033;-80
2023/03/15 08:15:12;;;;;;;3.95;1.88;;;9.80;67.00;;;;;;4983181;28;20077;-81
2023/03/15 08:17:39;;;;;;;3.75;1.50;;;10.20;68.00;;;;;;4996142;28;20061;-82
2023/03/15 08:20:09;;;;;;;4.50;1.83;;;11.30;62.00;;;;;;4980406;28;20038;-81
2023/03/15 08:22:34;;;;;;;4.00;1.73;;;12.10;59.20;;;;;;4981693;28;20529;-82
2023/03/15 08:25:00;;;;;;;4.65;1.63;;;13.00;57.90;;;;;;4994524;28;20049;-80
2023/03/15 08:27:26;;;;;;;3.13;1.30;;;14.30;54.80;;;;;;4997227;28;20438;-81
2023/03/15 08:29:51;;;;;;;3.03;1.42;;;15.60;50.50;;;;;;4978924;28;20022;-82
2023/03/15 08:32:18;;;;;;;5.13;1.60;;;16.60;46.50;;;;;;4976404;28;20030;-82
2023/03/15 08:34:44;;;;;;;2.50;1.15;;;17.70;44.90;;;;;;4991128;28;20400;-81
2023/03/15 08:37:10;;;;;;;2.70;1.08;;;18.90;42.40;;;;;;5000821;28;20170;-81
2023/03/15 08:39:36;;;;;;;3.97;1.30;;;20.00;39.30;;;;;;5000739;28;20022;-82
2023/03/15 08:42:02;;;;;;;4.15;1.23;;;20.60;37.90;;;;;;5001202;28;20081;-81
2023/03/15 08:44:28;;;;;;;2.90;1.08;;;21.30;36.50;;;;;;5001652;28;20029;-82
2023/03/15 08:46:54;;;;;;;4.07;1.08;;;21.50;35.60;;;;;;4999149;28;20559;-81
2023/03/15 08:49:19;;;;;;;6.10;1.17;;;21.60;35.40;;;;;;5000183;28;20084;-81
2023/03/15 08:51:45;;;;;;;3.20;1.15;;;22.00;35.20;;;;;;4997590;28;20103;-80
2023/03/15 08:54:13;;;;;;;3.42;1.30;;;22.30;34.30;;;;;;4989369;28;20033;-81
2023/03/15 08:56:40;;;;;;;3.03;1.10;;;23.40;33.60;;;;;;4993341;28;20513;-80
2023/03/15 08:59:06;;;;;;;2.92;1.20;;;24.30;31.60;;;;;;4989469;28;21084;-81
2023/03/15 09:01:32;;;;;;;3.00;1.20;;;24.40;31.20;;;;;;4977000;28;20124;-78
2023/03/15 09:03:57;;;;;;;3.25;1.10;;;24.70;29.70;;;;;;4976090;28;20226;-78
2023/03/15 09:06:23;;;;;;;2.42;1.30;;;25.30;29.30;;;;;;4986182;28;20572;-79
2023/03/15 09:08:49;;;;;;;2.55;1.10;;;25.30;28.90;;;;;;4985248;28;20030;-79
2023/03/15 09:11:15;;;;;;;3.47;1.00;;;25.00;29.90;;;;;;4988717;28;21462;-81
2023/03/15 09:13:40;;;;;;;2.03;1.10;;;24.80;30.60;;;;;;4990043;28;20034;-79
2023/03/15 09:16:06;;;;;;;2.67;1.10;;;25.00;30.30;;;;;;4997448;28;20608;-80
2023/03/15 09:18:32;;;;;;;2.25;1.20;;;24.80;30.40;;;;;;4998835;28;20120;-81
2023/03/15 09:20:58;;;;;;;1.88;0.95;;;24.70;30.60;;;;;;4979404;28;20041;-80
2023/03/15 09:23:24;;;;;;;3.85;1.20;;;24.80;30.70;;;;;;5001963;28;20046;-79
2023/03/15 09:25:49;;;;;;;2.63;1.15;;;25.20;30.30;;;;;;5001556;28;20049;-80
2023/03/15 09:28:15;;;;;;;3.30;1.00;;;25.50;29.60;;;;;;5000696;28;20109;-81
2023/03/15 09:30:41;;;;;;;2.47;0.90;;;23.60;29.40;;;;;;5003219;28;20056;-81
2023/03/15 09:33:07;;;;;;;2.35;1.00;;;23.20;30.00;;;;;;5003702;28;20401;-80
2023/03/15 09:35:33;;;;;;;2.55;1.00;;;21.80;33.00;;;;;;5000700;28;20113;-80
2023/03/15 09:37:59;;;;;;;1.92;0.73;;;21.40;35.80;;;;;;5005252;28;20122;-81
2023/03/15 09:40:34;;;;;;;4.13;1.23;;;20.70;34.60;;;;;;4998609;28;20057;-80
2023/03/15 09:43:05;;;;;;;2.33;1.02;;;19.60;35.60;;;;;;5001623;28;20029;-80
2023/03/15 09:45:49;;;;;;;4.07;1.23;;;19.30;37.70;;;;;;5003506;28;20042;-80
2023/03/15 09:48:22;;;;;;;2.10;1.02;;;18.20;39.90;;;;;;4998004;28;20026;-81
2023/03/15 09:50:55;;;;;;;2.00;1.02;;;17.50;40.90;;;;;;4998697;28;20729;-80
2023/03/15 09:53:33;;;;;;;2.53;1.17;;;17.20;42.30;;;;;;4989013;28;20038;-80
2023/03/15 09:55:59;;;;;;;2.97;0.95;;;17.00;43.40;;;;;;4997655;28;20025;-80
2023/03/15 09:58:31;;;;;;;2.65;0.75;;;16.90;40.60;;;;;;4999723;28;20402;-81
2023/03/15 10:01:07;;;;;;;3.10;0.70;;;17.00;41.90;;;;;;4995983;28;20648;-81
2023/03/15 10:03:48;;;;;;;1.63;0.85;;;17.70;41.30;;;;;;4993150;28;20565;-81
2023/03/15 10:06:23;;;;;;;3.90;0.50;;;18.30;40.50;;;;;;5002127;28;20041;-82
2023/03/15 10:08:53;;;;;;;1.92;0.60;;;18.30;40.00;;;;;;4993110;28;20116;-84
2023/03/15 10:11:49;;;;;;;1.07;0.37;;;18.50;39.40;;;;;;4994250;28;20041;-82
2023/03/15 10:14:35;;;;;;;3.42;0.65;;;18.00;38.20;;;;;;4990658;28;20294;-86
2023/03/15 10:17:09;;;;;;;2.00;0.80;;;16.80;42.00;;;;;;4995922;28;20085;-83
2023/03/15 10:19:57;;;;;;;3.65;1.00;;;16.80;42.50;;;;;;4995539;28;20038;-82
2023/03/15 10:22:55;;;;;;;2.45;0.82;;;15.90;43.50;;;;;;4982806;28;20050;-81
2023/03/15 10:25:26;;;;;;;2.67;0.90;;;15.90;43.60;;;;;;5000958;28;20026;-82
2023/03/15 10:28:07;;;;;;;3.00;0.80;;;16.10;44.00;;;;;;4999066;28;20033;-82
2023/03/15 10:30:36;;;;;;;1.35;0.63;;;16.10;44.40;;;;;;4997354;28;20034;-81
2023/03/15 10:33:13;;;;;;;1.77;0.63;;;16.20;44.20;;;;;;4985508;28;20029;-80
2023/03/15 10:35:38;;;;;;;2.75;0.65;;;15.70;45.50;;;;;;5007299;28;20033;-81
2023/03/15 10:38:21;;;;;;;2.40;0.40;;;15.30;46.30;;;;;;5004426;28;20051;-81
2023/03/15 10:40:49;;;;;;;3.15;0.73;;;14.80;45.60;;;;;;4993488;28;20041;-80
2023/03/15 10:43:24;;;;;;;3.13;0.50;;;13.60;49.00;;;;;;4999095;28;20057;-80
2023/03/15 10:46:07;;;;;;;4.70;0.70;;;13.80;52.20;;;;;;4989831;28;20024;-80
2023/03/15 10:48:38;;;;;;;3.33;0.45;;;13.90;47.30;;;;;;5006487;28;20049;-82
2023/03/15 10:51:20;;;;;;;2.67;0.68;;;14.10;49.60;;;;;;5003428;28;20030;-80
2023/03/15 10:53:55;;;;;;;3.45;0.57;;;14.40;45.80;;;;;;4986136;28;20871;-80
2023/03/15 10:56:27;;;;;;;2.58;0.60;;;14.80;47.20;;;;;;4984776;28;20417;-79
2023/03/15 10:58:55;;;;;;;1.60;0.40;;;15.20;47.30;;;;;;4985537;28;20347;-81
2023/03/15 11:01:27;;;;;;;2.75;0.70;;;14.50;48.00;;;;;;4982011;28;20030;-81
2023/03/15 11:04:21;;;;;;;2.25;0.80;;;14.20;46.30;;;;;;5003122;28;20065;-81
2023/03/15 11:07:02;;;;;;;2.20;0.60;;;13.90;49.60;;;;;;4983987;28;20402;-80
2023/03/15 11:09:38;;;;;;;3.03;0.88;;;14.30;48.10;;;;;;5006707;28;20034;-79
2023/03/15 11:12:06;;;;;;;3.70;0.75;;;14.00;49.70;;;;;;5004704;28;20485;-79
2023/03/15 11:14:46;;;;;;;1.95;0.70;;;13.40;50.00;;;;;;4980864;28;20038;-80
2023/03/15 11:17:24;;;;;;;1.08;0.50;;;13.30;52.30;;;;;;5002209;28;20056;-79
2023/03/15 11:19:58;;;;;;;2.80;0.60;;;13.30;51.20;;;;;;4997481;28;20030;-80
2023/03/15 11:22:24;;;;;;;2.95;0.80;;;13.70;53.40;;;;;;4999621;28;20536;-80
2023/03/15 11:24:53;;;;;;;3.08;0.55;;;13.60;51.50;;;;;;4982691;28;20053;-80
2023/03/15 11:27:22;;;;;;;2.72;0.60;;;13.70;52.10;;;;;;4984162;28;20109;-81
2023/03/15 11:29:53;;;;;;;2.70;0.52;;;14.00;51.90;;;;;;4979306;28;20029;-80
2023/03/15 11:32:22;;;;;;;1.30;0.50;;;13.40;51.30;;;;;;4980480;28;20041;-79
2023/03/15 11:35:12;;;;;;;3.65;0.60;;;13.50;51.70;;;;;;5000559;28;20061;-79
2023/03/15 11:37:49;;;;;;;1.95;0.55;;;13.60;54.40;;;;;;5000495;28;20044;-78
2023/03/15 11:40:28;;;;;;;1.60;0.50;;;13.60;52.80;;;;;;4999625;28;20110;-80
2023/03/15 11:43:00;;;;;;;1.27;0.50;;;13.60;52.90;;;;;;4980558;28;20030;-80
2023/03/15 11:45:58;;;;;;;3.38;0.70;;;13.50;51.60;;;;;;4994478;28;20129;-81
2023/03/15 11:48:49;;;;;;;3.28;0.85;;;13.60;52.10;;;;;;4992857;28;20054;-80
2023/03/15 11:51:15;;;;;;;;;;;13.80;55.00;;;;;;4996597;28;20037;-81
2023/03/15 11:54:00;;;;;;;2.40;0.40;;;14.20;52.40;;;;;;4980983;28;19928;-80
2023/03/15 11:56:43;;;;;;;2.20;0.60;;;14.30;51.50;;;;;;4974652;28;20099;-80
2023/03/15 11:59:14;;;;;;;1.67;0.55;;;14.60;49.80;;;;;;4991568;28;20078;-80
2023/03/15 12:02:08;;;;;;;1.40;0.60;;;14.40;50.90;;;;;;4979504;28;20038;-81
2023/03/15 12:04:34;;;;;;;3.30;0.80;;;13.80;52.90;;;;;;4959127;28;20034;-85
2023/03/15 12:07:30;;;;;;;2.10;0.57;;;13.60;54.80;;;;;;4983351;28;20485;-80
2023/03/15 12:10:02;;;;;;;1.80;0.63;;;13.40;54.40;;;;;;4988465;28;20406;-79
2023/03/15 12:12:28;;;;;;;4.50;0.77;;;13.20;53.80;;;;;;4975069;28;20033;-79
2023/03/15 12:15:12;;;;;;;2.10;0.50;;;13.10;52.40;;;;;;4975526;28;20034;-80
2023/03/15 12:17:55;;;;;;;3.13;0.63;;;13.50;55.90;;;;;;4997195;28;20124;-80
2023/03/15 12:20:44;;;;;;;1.45;0.45;;;13.50;52.80;;;;;;4990545;28;20054;-80
2023/03/15 12:23:21;;;;;;;1.70;0.50;;;13.80;54.80;;;;;;4972319;28;20065;-80
2023/03/15 12:26:04;;;;;;;4.20;0.50;;;13.70;53.80;;;;;;4976880;28;20022;-79
2023/03/15 12:28:37;;;;;;;3.60;0.60;;;13.70;55.60;;;;;;4983477;28;20038;-79
2023/03/15 12:31:06;;;;;;;1.63;0.50;;;13.10;52.80;;;;;;4995210;28;20033;-83
2023/03/15 12:33:43;;;;;;;5.32;1.25;;;13.10;55.60;;;;;;5004391;28;20049;-80
2023/03/15 12:36:19;;;;;;;0.68;0.55;;;13.30;54.10;;;;;;4996555;28;20128;-79
2023/03/15 12:38:58;;;;;;;3.08;0.65;;;13.20;54.50;;;;;;5000222;28;20045;-79
2023/03/15 12:41:39;;;;;;;2.45;0.55;;;13.30;55.90;;;;;;4996652;28;20168;-80
2023/03/15 12:44:17;;;;;;;2.22;0.60;;;12.90;54.50;;;;;;4996655;28;20022;-79
2023/03/15 12:46:53;;;;;;;2.05;0.50;;;12.50;57.80;;;;;;4998705;28;20026;-80
2023/03/15 12:49:22;;;;;;;4.47;0.70;;;12.30;57.40;;;;;;4994775;28;20130;-79
2023/03/15 12:51:58;;;;;;;3.75;0.80;;;12.30;59.80;;;;;;4999367;28;20034;-80
2023/03/15 12:54:33;;;;;;;2.00;0.57;;;12.10;61.40;;;;;;4981120;28;20032;-79
2023/03/15 12:57:02;;;;;;;2.72;0.70;;;12.20;61.50;;;;;;4998713;28;20048;-81
2023/03/15 12:59:31;;;;;;;3.38;0.70;;;12.10;58.70;;;;;;4993367;28;20150;-79
2023/03/15 13:01:59;;;;;;;1.27;0.60;;;11.90;63.10;;;;;;4977766;28;20052;-79